Time;durP1;ratioP1;P1;durP2;ratioP2;P2;SDS_P1;SDS_P2;PMS_P1;PMS_P2;Temp;Humidity;BMP_temperature;BMP_pressure;BME280_temperature;BME280_humidity;BME280_pressure;Samples;Min_cycle;Max_cycle;Signal;HPM_P1;HPM_P2
2023/02/07 00:00:37;;;;;;;5.72;2.03;;;3.40;99.90;;;;;;9944881;28;20047;-74
2023/02/07 00:05:29;;;;;;;2.72;1.45;;;3.30;99.90;;;;;;9946405;28;20082;-74
2023/02/07 00:10:20;;;;;;;5.55;2.05;;;3.30;99.90;;;;;;9936387;28;20031;-75
2023/02/07 00:15:11;;;;;;;2.78;1.52;;;3.20;99.90;;;;;;9938851;28;20524;-69
2023/02/07 00:20:02;;;;;;;2.28;1.63;;;3.20;99.90;;;;;;9939039;28;20042;-71
2023/02/07 00:24:53;;;;;;;3.92;1.98;;;3.20;99.90;;;;;;9938358;28;20035;-71
2023/02/07 00:29:44;;;;;;;2.78;1.60;;;3.20;99.90;;;;;;9938871;28;20089;-70
2023/02/07 00:34:37;;;;;;;4.82;1.85;;;3.20;99.90;;;;;;9938382;28;20027;-73
2023/02/07 00:39:28;;;;;;;2.70;1.77;;;3.10;99.90;;;;;;9936545;28;20051;-68
2023/02/07 00:44:18;;;;;;;3.58;2.10;;;3.10;99.90;;;;;;9952539;28;20022;-68
2023/02/07 00:49:10;;;;;;;3.00;2.17;;;3.00;99.90;;;;;;9943371;28;20165;-68
2023/02/07 00:54:01;;;;;;;3.13;1.65;;;2.90;99.90;;;;;;9950407;28;20026;-70
2023/02/07 00:58:52;;;;;;;2.95;1.27;;;2.90;99.90;;;;;;9941430;28;20054;-69
2023/02/07 01:03:42;;;;;;;4.15;2.25;;;2.90;99.90;;;;;;9936832;28;20038;-68
2023/02/07 01:08:34;;;;;;;2.33;1.55;;;2.80;99.90;;;;;;9939923;28;20130;-70
2023/02/07 01:13:24;;;;;;;4.18;2.03;;;2.80;99.90;;;;;;9941599;28;20417;-74
2023/02/07 01:18:15;;;;;;;3.70;2.20;;;2.80;99.90;;;;;;9947368;28;20046;-67
2023/02/07 01:23:06;;;;;;;5.80;2.88;;;2.80;99.90;;;;;;9952102;28;20034;-69
2023/02/07 01:27:57;;;;;;;3.88;2.10;;;2.70;99.90;;;;;;9952974;28;20101;-67
2023/02/07 01:32:48;;;;;;;5.10;2.33;;;2.70;99.90;;;;;;9946705;28;20030;-64
2023/02/07 01:37:38;;;;;;;3.13;1.75;;;2.70;99.90;;;;;;9947301;28;20041;-66
2023/02/07 01:42:29;;;;;;;5.93;2.20;;;2.60;99.90;;;;;;9962444;28;20046;-67
2023/02/07 01:47:22;;;;;;;3.58;1.60;;;2.50;99.90;;;;;;9946649;28;20019;-65
2023/02/07 01:52:32;;;;;;;2.75;1.75;;;2.60;99.90;;;;;;9947577;28;20456;-67
2023/02/07 01:57:23;;;;;;;1.48;1.30;;;2.60;99.90;;;;;;9953746;28;20038;-69
2023/02/07 02:02:16;;;;;;;3.05;1.88;;;2.50;99.90;;;;;;9943654;28;20448;-67
2023/02/07 02:07:09;;;;;;;4.72;1.73;;;2.50;99.90;;;;;;9944178;28;20106;-69
2023/02/07 02:12:20;;;;;;;3.95;1.63;;;2.40;99.90;;;;;;9944953;28;20484;-69
2023/02/07 02:17:26;;;;;;;2.67;1.90;;;2.30;99.90;;;;;;9937820;28;20110;-69
2023/02/07 02:22:44;;;;;;;6.22;2.92;;;2.20;99.90;;;;;;9943405;28;20547;-70
2023/02/07 02:27:35;;;;;;;6.40;2.45;;;2.10;99.90;;;;;;9941737;28;20493;-68
2023/02/07 02:33:02;;;;;;;3.78;2.55;;;2.10;99.90;;;;;;9942064;28;20026;-68
2023/02/07 02:37:57;;;;;;;4.38;2.22;;;2.10;99.90;;;;;;9941945;28;20030;-67
2023/02/07 02:43:34;;;;;;;3.22;2.33;;;2.00;99.90;;;;;;9944217;28;20389;-68
2023/02/07 02:48:27;;;;;;;2.92;1.90;;;2.00;99.90;;;;;;9940406;28;20047;-68
2023/02/07 02:53:18;;;;;;;3.28;1.67;;;2.00;99.90;;;;;;9942647;28;20074;-67
2023/02/07 02:58:36;;;;;;;3.13;2.00;;;2.10;99.90;;;;;;9946336;28;20460;-68
2023/02/07 03:03:48;;;;;;;2.92;1.75;;;2.10;99.90;;;;;;9940756;28;20038;-67
2023/02/07 03:08:41;;;;;;;4.75;1.95;;;2.10;99.90;;;;;;9935052;28;20466;-68
2023/02/07 03:13:55;;;;;;;6.80;2.63;;;2.00;99.90;;;;;;9941109;28;20047;-69
2023/02/07 03:19:27;;;;;;;4.22;2.20;;;2.00;99.90;;;;;;9937001;28;20070;-65
2023/02/07 03:24:30;;;;;;;5.68;2.08;;;2.10;99.90;;;;;;9888567;28;20034;-64
2023/02/07 03:29:23;;;;;;;4.28;2.20;;;2.00;99.90;;;;;;9935656;28;20386;-64
2023/02/07 03:34:23;;;;;;;4.28;2.17;;;2.00;99.90;;;;;;9939979;28;20593;-64
2023/02/07 03:39:14;;;;;;;4.38;2.30;;;1.90;99.90;;;;;;9921764;28;20110;-66
2023/02/07 03:44:06;;;;;;;3.78;2.10;;;1.90;99.90;;;;;;9939574;28;20031;-65
2023/02/07 03:48:57;;;;;;;4.55;2.30;;;1.80;99.90;;;;;;9940501;28;20030;-68
2023/02/07 03:53:47;;;;;;;3.40;2.22;;;1.70;99.90;;;;;;9956528;28;20057;-67
2023/02/07 03:58:38;;;;;;;3.55;2.33;;;1.70;99.90;;;;;;9956894;28;20057;-66
2023/02/07 04:03:29;;;;;;;3.40;2.38;;;1.80;99.90;;;;;;9941404;28;20033;-64
2023/02/07 04:08:19;;;;;;;6.57;2.53;;;1.70;99.90;;;;;;9948117;28;20042;-65
2023/02/07 04:13:10;;;;;;;6.53;2.65;;;1.70;99.90;;;;;;9955285;28;20079;-66
2023/02/07 04:18:01;;;;;;;5.47;2.70;;;1.60;99.90;;;;;;9940363;28;20058;-65
2023/02/07 04:22:51;;;;;;;2.70;2.03;;;1.60;99.90;;;;;;9940949;28;20037;-64
2023/02/07 04:27:42;;;;;;;5.00;2.28;;;1.50;99.90;;;;;;9938141;28;20106;-67
2023/02/07 04:32:33;;;;;;;5.55;2.70;;;1.50;99.90;;;;;;9947770;28;20254;-67
2023/02/07 04:37:23;;;;;;;5.78;2.88;;;1.50;99.90;;;;;;9943308;28;20146;-66
2023/02/07 04:42:14;;;;;;;4.32;2.67;;;1.50;99.90;;;;;;9938814;28;20031;-65
2023/02/07 04:47:05;;;;;;;5.72;2.47;;;1.50;99.90;;;;;;9939827;28;21243;-66
2023/02/07 04:51:55;;;;;;;5.40;3.20;;;1.40;99.90;;;;;;9947637;28;20061;-67
2023/02/07 04:56:46;;;;;;;6.60;2.72;;;1.40;99.90;;;;;;9947377;28;20030;-70
2023/02/07 05:01:37;;;;;;;5.40;2.55;;;1.40;99.90;;;;;;9945585;28;20069;-70
2023/02/07 05:06:27;;;;;;;4.72;2.67;;;1.50;99.90;;;;;;9940956;28;20355;-73
2023/02/07 05:11:18;;;;;;;7.25;2.90;;;1.40;99.90;;;;;;9943148;28;20038;-66
2023/02/07 05:16:09;;;;;;;5.53;2.80;;;1.50;99.90;;;;;;9946281;28;20043;-68
2023/02/07 05:21:00;;;;;;;7.13;3.25;;;1.40;99.90;;;;;;9946038;28;20041;-68
2023/02/07 05:25:50;;;;;;;5.28;2.63;;;1.30;99.90;;;;;;9945233;28;20508;-68
2023/02/07 05:30:41;;;;;;;6.13;3.67;;;1.30;99.90;;;;;;9944444;28;20043;-69
2023/02/07 05:35:38;;;;;;;7.28;4.70;;;1.30;99.90;;;;;;9944919;28;20051;-67
2023/02/07 05:40:28;;;;;;;6.47;2.92;;;1.10;99.90;;;;;;9943542;28;20303;-67
2023/02/07 05:45:20;;;;;;;6.47;3.67;;;0.90;99.90;;;;;;9944948;28;20031;-68
2023/02/07 05:50:11;;;;;;;7.75;3.97;;;0.90;99.90;;;;;;9945053;28;20509;-68
2023/02/07 05:55:02;;;;;;;7.45;4.47;;;0.80;99.90;;;;;;9956636;28;20035;-67
2023/02/07 05:59:52;;;;;;;5.75;2.97;;;0.80;99.90;;;;;;9944036;28;20476;-68
2023/02/07 06:04:43;;;;;;;5.25;2.78;;;0.80;99.90;;;;;;9946979;28;20040;-70
2023/02/07 06:09:34;;;;;;;5.78;2.97;;;0.90;99.90;;;;;;9939880;28;20433;-70
2023/02/07 06:14:25;;;;;;;7.22;3.70;;;0.90;99.90;;;;;;9924089;28;20057;-71
2023/02/07 06:19:15;;;;;;;7.15;3.97;;;0.90;99.90;;;;;;9944721;28;20039;-69
2023/02/07 06:24:07;;;;;;;8.63;3.80;;;0.80;99.90;;;;;;9942683;28;20022;-68
2023/02/07 06:28:57;;;;;;;7.85;3.78;;;0.80;99.90;;;;;;9944136;28;20030;-70
2023/02/07 06:33:48;;;;;;;7.45;3.78;;;0.80;99.90;;;;;;9942131;28;20038;-68
2023/02/07 06:38:39;;;;;;;10.60;4.18;;;0.80;99.90;;;;;;9938724;28;20030;-69
2023/02/07 06:43:30;;;;;;;8.30;4.32;;;0.80;99.90;;;;;;9941911;28;20056;-69
2023/02/07 06:48:21;;;;;;;8.70;3.95;;;0.80;99.90;;;;;;9944117;28;20102;-68
2023/02/07 06:53:12;;;;;;;5.88;3.80;;;0.80;99.90;;;;;;9915598;28;20544;-66
2023/02/07 06:58:03;;;;;;;9.25;3.97;;;0.90;99.90;;;;;;9951538;28;20166;-66
2023/02/07 07:02:53;;;;;;;6.50;3.33;;;0.90;99.90;;;;;;9951430;28;20478;-68
2023/02/07 07:07:44;;;;;;;10.90;4.15;;;0.80;99.90;;;;;;9940468;28;20035;-70
2023/02/07 07:12:35;;;;;;;11.20;3.90;;;0.80;99.90;;;;;;9939521;28;20043;-70
2023/02/07 07:17:25;;;;;;;7.07;3.90;;;0.80;99.90;;;;;;9940721;28;20512;-71
2023/02/07 07:22:16;;;;;;;8.40;4.28;;;0.70;99.90;;;;;;9940444;28;20460;-70
2023/02/07 07:27:07;;;;;;;6.18;3.85;;;0.80;99.90;;;;;;9940274;28;20034;-68
2023/02/07 07:31:57;;;;;;;8.35;4.80;;;0.70;99.90;;;;;;9939795;28;20520;-69
2023/02/07 07:36:48;;;;;;;9.85;5.40;;;0.80;99.90;;;;;;9930789;28;20098;-68
2023/02/07 07:41:39;;;;;;;8.45;4.03;;;0.80;99.90;;;;;;9934189;28;20523;-65
2023/02/07 07:46:29;;;;;;;9.93;4.65;;;0.80;99.90;;;;;;9937933;28;20137;-65
2023/02/07 07:51:20;;;;;;;9.60;5.43;;;0.80;99.90;;;;;;9936477;28;20023;-64
2023/02/07 07:56:11;;;;;;;13.45;5.45;;;0.80;99.90;;;;;;9942144;28;20092;-64
2023/02/07 08:01:02;;;;;;;8.10;4.07;;;0.70;99.90;;;;;;9935493;28;20417;-65
2023/02/07 08:05:53;;;;;;;8.30;4.28;;;0.80;99.90;;;;;;9931730;28;20078;-65
2023/02/07 08:10:45;;;;;;;9.40;4.57;;;0.90;99.90;;;;;;9919676;28;20037;-64
2023/02/07 08:15:36;;;;;;;7.47;4.65;;;0.90;99.90;;;;;;9936262;28;20137;-65
2023/02/07 08:20:26;;;;;;;10.35;5.07;;;0.90;99.90;;;;;;9937211;28;20222;-64
2023/02/07 08:25:18;;;;;;;8.63;4.47;;;1.00;99.90;;;;;;9936976;28;20137;-67
2023/02/07 08:30:13;;;;;;;13.57;5.43;;;1.10;99.90;;;;;;9936085;28;20456;-69
2023/02/07 08:35:04;;;;;;;9.02;3.97;;;1.00;99.90;;;;;;9921550;28;20046;-67
2023/02/07 08:39:56;;;;;;;8.65;5.57;;;1.10;99.90;;;;;;9936821;28;20173;-67
2023/02/07 08:44:47;;;;;;;12.73;5.60;;;1.20;99.90;;;;;;9936763;28;20194;-66
2023/02/07 08:49:38;;;;;;;9.63;5.35;;;1.20;99.90;;;;;;9932930;28;20583;-64
2023/02/07 08:54:29;;;;;;;10.57;4.78;;;1.30;99.90;;;;;;9949089;28;20038;-64
2023/02/07 08:59:20;;;;;;;9.80;5.20;;;1.30;99.90;;;;;;9939576;28;20063;-65
2023/02/07 09:04:10;;;;;;;9.90;5.55;;;1.20;99.90;;;;;;9937406;28;20118;-65
2023/02/07 09:09:01;;;;;;;12.63;4.75;;;1.30;99.90;;;;;;9938309;28;20086;-66
2023/02/07 09:13:52;;;;;;;7.75;4.25;;;1.50;99.90;;;;;;9937388;28;20128;-65
2023/02/07 09:18:43;;;;;;;8.43;4.88;;;1.50;99.90;;;;;;9936751;28;20090;-66
2023/02/07 09:23:36;;;;;;;10.82;5.25;;;1.60;99.90;;;;;;9936583;28;20582;-65
2023/02/07 09:28:27;;;;;;;12.70;5.72;;;1.70;99.90;;;;;;9924790;28;20050;-64
2023/02/07 09:33:18;;;;;;;35.97;16.35;;;1.80;99.90;;;;;;9938196;28;20415;-71
2023/02/07 09:38:14;;;;;;;15.32;8.38;;;2.00;99.90;;;;;;9943930;28;20543;-70
2023/02/07 09:43:49;;;;;;;12.60;7.07;;;2.00;99.90;;;;;;9927945;28;20552;-66
2023/02/07 09:49:04;;;;;;;12.50;5.97;;;2.00;99.90;;;;;;9941137;28;20042;-67
2023/02/07 09:54:06;;;;;;;8.85;4.78;;;2.20;99.90;;;;;;9943555;28;20041;-68
2023/02/07 09:59:00;;;;;;;11.82;6.55;;;2.20;99.90;;;;;;9940784;28;20038;-68
2023/02/07 10:04:17;;;;;;;7.35;4.32;;;2.30;99.90;;;;;;9941367;28;20114;-67
2023/02/07 10:09:19;;;;;;;8.85;5.35;;;2.40;99.90;;;;;;9942464;28;20110;-70
2023/02/07 10:14:30;;;;;;;8.45;5.05;;;2.40;99.90;;;;;;9940327;28;20054;-70
2023/02/07 10:19:24;;;;;;;9.23;5.50;;;2.40;99.90;;;;;;9939335;28;20039;-72
2023/02/07 10:24:29;;;;;;;9.77;6.43;;;2.50;99.90;;;;;;9941850;28;20581;-69
2023/02/07 10:29:20;;;;;;;10.23;5.45;;;2.50;99.90;;;;;;9943269;28;20022;-69
2023/02/07 10:34:26;;;;;;;12.45;6.13;;;2.60;99.90;;;;;;9944759;28;20090;-72
2023/02/07 10:39:38;;;;;;;10.20;5.65;;;2.70;99.90;;;;;;9940068;28;20405;-71
2023/02/07 10:44:29;;;;;;;10.73;5.30;;;2.90;99.90;;;;;;9941217;28;20022;-69
2023/02/07 10:49:23;;;;;;;9.20;5.18;;;2.80;99.90;;;;;;9943458;28;20038;-67
2023/02/07 10:54:23;;;;;;;10.90;6.05;;;2.80;99.90;;;;;;9943020;28;20026;-68
2023/02/07 10:59:45;;;;;;;8.10;5.03;;;2.90;99.90;;;;;;9939366;28;20122;-67
2023/02/07 11:04:37;;;;;;;11.32;6.32;;;3.00;99.90;;;;;;9939524;28;20030;-67
2023/02/07 11:09:29;;;;;;;13.50;5.18;;;3.10;99.90;;;;;;9939434;28;20553;-65
2023/02/07 11:14:26;;;;;;;8.68;5.47;;;3.10;99.90;;;;;;9939058;28;20232;-69
2023/02/07 11:19:23;;;;;;;10.80;5.72;;;3.30;99.90;;;;;;9938788;28;20136;-73
2023/02/07 11:24:35;;;;;;;10.57;5.47;;;3.40;99.90;;;;;;9928640;28;20114;-69
2023/02/07 11:29:26;;;;;;;10.95;5.53;;;3.60;99.90;;;;;;9942255;28;20117;-68
2023/02/07 11:34:39;;;;;;;9.38;5.15;;;3.50;99.90;;;;;;9922205;28;20113;-68
2023/02/07 11:39:30;;;;;;;7.90;5.32;;;3.50;99.90;;;;;;9931097;28;20086;-68
2023/02/07 11:44:23;;;;;;;8.23;4.95;;;3.40;99.90;;;;;;9937832;28;20019;-67
2023/02/07 11:49:35;;;;;;;11.02;5.18;;;3.50;99.90;;;;;;9937087;28;20037;-69
2023/02/07 11:54:28;;;;;;;8.90;5.68;;;3.60;99.90;;;;;;9946141;28;20026;-67
2023/02/07 11:59:22;;;;;;;11.13;5.53;;;3.50;99.90;;;;;;9940889;28;20193;-68
2023/02/07 12:04:25;;;;;;;11.85;6.05;;;3.70;99.90;;;;;;9939316;28;20346;-68
2023/02/07 12:09:39;;;;;;;11.93;5.18;;;3.70;99.90;;;;;;9940021;28;20114;-68
2023/02/07 12:14:40;;;;;;;10.88;6.35;;;3.70;99.90;;;;;;9925644;28;20122;-69
2023/02/07 12:19:36;;;;;;;11.90;5.30;;;3.90;99.90;;;;;;9938477;28;20042;-68
2023/02/07 12:24:38;;;;;;;9.10;5.25;;;4.10;99.90;;;;;;9939185;28;20113;-69
2023/02/07 12:29:51;;;;;;;7.55;4.97;;;4.30;99.90;;;;;;9938755;28;20027;-68
2023/02/07 12:34:45;;;;;;;7.70;5.00;;;4.30;99.90;;;;;;9938207;28;20027;-69
2023/02/07 12:39:50;;;;;;;10.18;5.97;;;4.40;99.90;;;;;;9940941;28;20054;-68
2023/02/07 12:44:54;;;;;;;7.72;4.57;;;4.60;99.90;;;;;;9938964;28;20033;-68
2023/02/07 12:50:12;;;;;;;8.23;4.88;;;4.60;99.90;;;;;;9937658;28;20409;-67
2023/02/07 12:55:42;;;;;;;7.30;5.30;;;4.70;99.90;;;;;;9937368;28;20589;-67
2023/02/07 13:00:57;;;;;;;12.35;5.38;;;4.90;99.90;;;;;;9931534;28;20051;-67
2023/02/07 13:05:54;;;;;;;12.30;6.25;;;5.10;99.90;;;;;;9936553;28;20042;-68
2023/02/07 13:11:14;;;;;;;9.05;5.28;;;5.10;99.90;;;;;;9941127;28;20108;-68
2023/02/07 13:16:18;;;;;;;11.18;6.05;;;5.30;99.90;;;;;;9947872;28;20532;-69
2023/02/07 13:21:27;;;;;;;9.73;5.47;;;5.40;99.90;;;;;;9954147;28;20062;-66
2023/02/07 13:26:20;;;;;;;8.35;5.60;;;5.50;99.90;;;;;;9946291;28;20106;-68
2023/02/07 13:31:19;;;;;;;8.93;5.35;;;5.70;99.90;;;;;;9943152;28;20029;-64
2023/02/07 13:36:37;;;;;;;10.25;5.95;;;5.90;99.90;;;;;;9942873;28;20481;-64
2023/02/07 13:41:32;;;;;;;11.93;6.93;;;5.90;99.90;;;;;;9942404;28;20401;-68
2023/02/07 13:46:54;;;;;;;11.43;5.43;;;5.80;99.90;;;;;;9942336;28;20054;-67
2023/02/07 13:52:08;;;;;;;6.32;4.53;;;5.70;99.90;;;;;;9940360;28;20031;-65
2023/02/07 14:02:20;;;;;;;7.65;5.15;;;5.60;99.90;;;;;;9941050;28;20082;-65
2023/02/07 14:07:24;;;;;;;13.68;5.32;;;5.70;99.90;;;;;;9940546;28;20034;-66
2023/02/07 14:12:28;;;;;;;10.55;6.60;;;5.70;99.90;;;;;;9941229;28;20043;-67
2023/02/07 14:17:25;;;;;;;7.30;4.93;;;5.60;99.90;;;;;;9942426;28;20030;-65
2023/02/07 14:22:30;;;;;;;8.18;5.13;;;5.60;99.90;;;;;;9939116;28;20126;-67
2023/02/07 14:27:38;;;;;;;5.32;3.88;;;5.50;99.90;;;;;;9938895;28;20015;-71
2023/02/07 14:32:36;;;;;;;7.57;4.65;;;5.40;99.90;;;;;;9945145;28;20018;-72
2023/02/07 14:38:00;;;;;;;9.15;4.55;;;5.30;99.90;;;;;;9943179;28;20535;-70
2023/02/07 14:42:56;;;;;;;8.73;5.30;;;5.20;99.90;;;;;;9945620;28;20110;-65
2023/02/07 14:47:48;;;;;;;7.43;4.70;;;5.10;99.90;;;;;;9947989;28;20030;-64
2023/02/07 14:52:42;;;;;;;10.80;4.43;;;5.00;99.90;;;;;;9942302;28;20385;-66
2023/02/07 14:57:42;;;;;;;11.05;4.70;;;5.00;99.90;;;;;;9950361;28;20031;-70
2023/02/07 15:02:39;;;;;;;12.35;5.03;;;5.00;99.90;;;;;;9940203;28;20038;-69
2023/02/07 15:07:29;;;;;;;12.77;6.45;;;5.00;99.90;;;;;;9943030;28;20400;-69
2023/02/07 15:12:24;;;;;;;8.80;4.25;;;5.00;99.90;;;;;;9943687;28;20082;-68
2023/02/07 15:17:24;;;;;;;9.03;4.47;;;4.90;99.90;;;;;;9942871;28;20396;-69
2023/02/07 15:22:28;;;;;;;12.50;5.63;;;4.80;99.90;;;;;;9940814;28;20082;-70
2023/02/07 15:27:21;;;;;;;14.45;7.05;;;4.80;99.90;;;;;;9948073;28;20030;-71
2023/02/07 15:32:34;;;;;;;16.17;7.45;;;4.80;99.90;;;;;;9952706;28;20493;-69
2023/02/07 15:37:26;;;;;;;14.52;5.63;;;4.80;99.90;;;;;;9946925;28;20532;-75
2023/02/07 15:42:19;;;;;;;19.98;10.13;;;4.80;99.90;;;;;;9946262;28;20528;-73
2023/02/07 15:47:28;;;;;;;13.18;6.05;;;4.70;99.90;;;;;;9943974;28;20022;-74
2023/02/07 15:52:27;;;;;;;11.73;4.85;;;4.70;99.90;;;;;;9942874;28;20034;-72
2023/02/07 15:57:32;;;;;;;8.73;4.68;;;4.70;99.90;;;;;;9938879;28;20022;-71
2023/02/07 16:02:30;;;;;;;8.40;5.03;;;4.60;99.90;;;;;;9937485;28;20034;-69
2023/02/07 16:07:22;;;;;;;11.23;5.05;;;4.50;99.90;;;;;;9940674;28;20437;-71
2023/02/07 16:12:40;;;;;;;11.35;6.43;;;4.50;99.90;;;;;;9940555;28;20037;-69
2023/02/07 16:17:40;;;;;;;9.90;4.38;;;4.40;99.90;;;;;;9940424;28;20043;-65
2023/02/07 16:22:31;;;;;;;6.32;4.68;;;4.30;99.90;;;;;;9918823;28;20485;-68
2023/02/07 16:27:30;;;;;;;11.45;4.88;;;4.30;99.90;;;;;;9937634;28;20117;-70
2023/02/07 16:32:21;;;;;;;10.05;4.18;;;4.20;99.90;;;;;;9939817;28;20203;-69
2023/02/07 16:37:13;;;;;;;8.07;4.88;;;4.10;99.90;;;;;;9939295;28;21431;-65
2023/02/07 16:42:11;;;;;;;10.32;4.57;;;4.10;99.90;;;;;;9937610;28;20035;-67
2023/02/07 16:47:02;;;;;;;9.32;4.05;;;4.00;99.90;;;;;;9946734;28;20094;-70
2023/02/07 16:51:53;;;;;;;10.85;4.50;;;4.00;99.90;;;;;;9947245;28;20117;-69
2023/02/07 16:56:46;;;;;;;10.50;5.45;;;3.90;99.90;;;;;;9949559;28;20280;-67
2023/02/07 17:01:37;;;;;;;7.95;4.35;;;3.80;99.90;;;;;;9932948;28;20556;-69
2023/02/07 17:06:28;;;;;;;8.98;3.30;;;3.70;99.90;;;;;;9949888;28;20045;-68
2023/02/07 17:11:24;;;;;;;5.28;3.85;;;3.70;99.90;;;;;;9945804;28;20084;-68
2023/02/07 17:16:15;;;;;;;9.18;4.30;;;3.60;99.90;;;;;;9941811;28;20050;-68
2023/02/07 17:21:07;;;;;;;6.43;3.90;;;3.60;99.90;;;;;;9922465;28;20294;-69
2023/02/07 17:25:58;;;;;;;6.68;4.28;;;3.50;99.90;;;;;;9946407;28;20019;-71
2023/02/07 17:30:49;;;;;;;8.35;3.92;;;3.50;99.90;;;;;;9949423;28;20085;-68
2023/02/07 17:35:40;;;;;;;8.70;4.22;;;3.50;99.90;;;;;;9932477;28;20081;-68
2023/02/07 17:40:36;;;;;;;6.82;3.80;;;3.40;99.90;;;;;;9944681;28;20425;-69
2023/02/07 17:45:28;;;;;;;6.60;3.80;;;3.40;99.90;;;;;;9942467;28;20106;-65
2023/02/07 17:50:29;;;;;;;6.53;3.80;;;3.30;99.90;;;;;;9927546;28;20106;-65
2023/02/07 17:55:20;;;;;;;10.30;3.50;;;3.30;99.90;;;;;;9947035;28;20019;-72
2023/02/07 18:00:27;;;;;;;6.15;3.40;;;3.30;99.90;;;;;;9937323;28;20041;-71
2023/02/07 18:05:18;;;;;;;6.85;3.80;;;3.30;99.90;;;;;;9951709;28;20074;-67
2023/02/07 18:10:11;;;;;;;11.55;6.15;;;3.20;99.90;;;;;;9947958;28;20090;-64
2023/02/07 18:15:02;;;;;;;202.73;79.60;;;3.20;99.90;;;;;;9945687;28;20109;-68
2023/02/07 18:19:53;;;;;;;59.75;28.70;;;3.60;99.90;;;;;;9949351;28;20042;-65
2023/02/07 18:24:43;;;;;;;37.55;17.88;;;3.70;99.90;;;;;;9947917;28;20527;-66
2023/02/07 18:29:34;;;;;;;18.70;10.10;;;3.30;99.90;;;;;;9941842;28;20038;-66
2023/02/07 18:34:25;;;;;;;20.45;9.05;;;3.10;99.90;;;;;;9945486;28;20081;-65
2023/02/07 18:39:16;;;;;;;13.10;6.85;;;3.10;99.90;;;;;;9956323;28;20035;-67
2023/02/07 18:44:07;;;;;;;18.42;7.00;;;3.00;99.90;;;;;;9939108;28;20055;-66
2023/02/07 18:48:58;;;;;;;12.40;6.07;;;3.00;99.90;;;;;;9929491;28;20064;-68
2023/02/07 18:53:49;;;;;;;10.63;5.32;;;2.90;99.90;;;;;;9951250;28;20134;-70
2023/02/07 18:58:40;;;;;;;8.43;4.57;;;2.90;99.90;;;;;;9946004;28;20061;-67
2023/02/07 19:03:31;;;;;;;85.35;34.03;;;2.90;99.90;;;;;;9914602;28;20039;-71
2023/02/07 19:08:22;;;;;;;60.15;26.05;;;3.40;99.90;;;;;;9937290;28;20528;-74
2023/02/07 19:13:13;;;;;;;14.75;8.52;;;3.40;99.90;;;;;;9938588;28;20109;-69
2023/02/07 19:18:04;;;;;;;12.48;4.68;;;3.00;99.90;;;;;;9938504;28;20109;-72
2023/02/07 19:22:54;;;;;;;11.23;5.32;;;2.90;99.90;;;;;;9944015;28;20360;-64
2023/02/07 19:27:45;;;;;;;10.75;4.97;;;2.90;99.90;;;;;;9941644;28;20027;-75
2023/02/07 19:32:36;;;;;;;11.00;4.88;;;2.80;99.90;;;;;;9944553;28;20111;-72
2023/02/07 19:37:26;;;;;;;6.93;3.92;;;2.70;99.90;;;;;;9947123;28;20027;-68
2023/02/07 19:42:17;;;;;;;10.57;4.22;;;2.70;99.90;;;;;;9940563;28;20043;-67
2023/02/07 19:47:08;;;;;;;8.50;4.10;;;2.70;99.90;;;;;;9939773;28;20508;-69
2023/02/07 19:51:59;;;;;;;8.63;4.97;;;2.70;99.90;;;;;;9949844;28;20094;-72
2023/02/07 19:56:50;;;;;;;6.95;4.03;;;2.60;99.90;;;;;;9934396;28;20118;-70
2023/02/07 20:01:40;;;;;;;6.20;3.65;;;2.70;99.90;;;;;;9921890;28;20039;-68
2023/02/07 20:06:33;;;;;;;235.68;94.82;;;2.60;99.90;;;;;;9940058;28;20394;-71
2023/02/07 20:11:23;;;;;;;124.57;49.65;;;3.40;99.90;;;;;;9943078;28;20131;-66
2023/02/07 20:16:17;;;;;;;61.60;27.50;;;3.70;99.90;;;;;;9938826;28;20122;-70
2023/02/07 20:21:11;;;;;;;20.85;9.55;;;3.20;99.90;;;;;;9949325;28;20034;-67
2023/02/07 20:26:14;;;;;;;16.35;9.38;;;2.80;99.90;;;;;;9939364;28;20476;-71
2023/02/07 20:31:06;;;;;;;12.25;7.03;;;2.60;99.90;;;;;;9938359;28;20097;-66
2023/02/07 20:35:57;;;;;;;12.63;5.72;;;2.50;99.90;;;;;;9938591;28;20023;-70
2023/02/07 20:40:48;;;;;;;11.02;5.90;;;2.30;99.90;;;;;;9939245;28;20049;-69
2023/02/07 20:45:39;;;;;;;9.18;3.92;;;2.20;99.90;;;;;;9937672;28;20038;-70
2023/02/07 20:50:30;;;;;;;258.40;114.97;;;2.10;99.90;;;;;;9927717;28;20497;-68
2023/02/07 20:55:20;;;;;;;150.15;67.50;;;3.50;99.90;;;;;;9942550;28;20037;-65
2023/02/07 21:00:12;;;;;;;31.45;15.77;;;3.10;99.90;;;;;;9940888;28;20039;-66
2023/02/07 21:05:02;;;;;;;18.05;10.35;;;2.50;99.90;;;;;;9938659;28;20027;-62
2023/02/07 21:09:53;;;;;;;16.65;8.25;;;2.40;99.90;;;;;;9948432;28;20049;-64
2023/02/07 21:14:44;;;;;;;15.55;7.25;;;2.10;99.90;;;;;;9944791;28;20513;-66
2023/02/07 21:19:36;;;;;;;9.48;5.07;;;2.10;99.90;;;;;;9945683;28;20624;-68
2023/02/07 21:24:27;;;;;;;12.85;4.78;;;2.00;99.90;;;;;;9943050;28;20075;-69
2023/02/07 21:29:19;;;;;;;8.80;4.55;;;1.90;99.90;;;;;;9943969;28;20043;-68
2023/02/07 21:34:11;;;;;;;6.00;3.15;;;1.90;99.90;;;;;;9951058;28;20038;-68
2023/02/07 21:39:07;;;;;;;7.38;4.22;;;1.80;99.90;;;;;;9935935;28;20065;-68
2023/02/07 21:43:58;;;;;;;10.23;4.40;;;1.80;99.90;;;;;;9952779;28;20038;-66
2023/02/07 21:48:59;;;;;;;6.60;4.15;;;1.80;99.90;;;;;;9928642;28;20159;-53
2023/02/07 21:53:52;;;;;;;241.50;91.18;;;1.70;99.90;;;;;;9946327;28;20018;-65
2023/02/07 21:58:43;;;;;;;164.93;69.50;;;3.00;99.90;;;;;;9950831;28;20074;-64
2023/02/07 22:03:35;;;;;;;29.83;14.77;;;2.90;99.90;;;;;;9925554;28;20502;-64
2023/02/07 22:08:25;;;;;;;22.55;10.25;;;2.20;99.90;;;;;;9950395;28;20029;-68
2023/02/07 22:13:16;;;;;;;16.48;8.48;;;1.90;99.90;;;;;;9955296;28;20047;-73
2023/02/07 22:18:07;;;;;;;12.18;6.75;;;1.80;99.90;;;;;;9940853;28;20085;-68
2023/02/07 22:22:57;;;;;;;13.65;4.80;;;1.70;99.90;;;;;;9943194;28;20069;-63
2023/02/07 22:27:48;;;;;;;12.70;5.78;;;1.70;99.90;;;;;;9972375;28;20057;-70
2023/02/07 22:32:39;;;;;;;10.57;4.55;;;1.60;99.90;;;;;;9956447;28;20054;-70
2023/02/07 22:37:29;;;;;;;9.20;4.43;;;1.50;99.90;;;;;;9929566;28;20121;-71
2023/02/07 22:42:20;;;;;;;8.75;4.55;;;1.50;99.90;;;;;;9948892;28;20046;-70
2023/02/07 22:47:11;;;;;;;8.82;4.05;;;1.40;99.90;;;;;;9948368;28;20496;-67
2023/02/07 22:52:01;;;;;;;93.28;37.95;;;1.40;99.90;;;;;;9945047;28;20576;-64
2023/02/07 22:56:52;;;;;;;136.30;57.25;;;2.00;99.90;;;;;;9951006;28;20030;-63
2023/02/07 23:01:43;;;;;;;37.92;19.45;;;2.20;99.90;;;;;;9942108;28;20051;-71
2023/02/07 23:06:34;;;;;;;13.07;8.20;;;2.10;99.90;;;;;;9947038;28;20104;-66
2023/02/07 23:11:25;;;;;;;11.13;6.28;;;1.70;99.90;;;;;;9941752;28;20043;-65
2023/02/07 23:16:19;;;;;;;10.98;5.95;;;1.50;99.90;;;;;;9926065;28;20097;-65
2023/02/07 23:21:11;;;;;;;9.52;5.68;;;1.40;99.90;;;;;;9936907;28;20097;-67
2023/02/07 23:26:06;;;;;;;134.18;55.33;;;1.20;99.90;;;;;;9940009;28;20508;-61
2023/02/07 23:30:57;;;;;;;50.03;21.77;;;1.70;99.90;;;;;;9937480;28;20419;-68
2023/02/07 23:35:47;;;;;;;19.17;9.20;;;1.50;99.90;;;;;;9940435;28;20027;-70
2023/02/07 23:40:38;;;;;;;16.30;7.10;;;1.30;99.90;;;;;;9938883;28;20125;-69
2023/02/07 23:45:31;;;;;;;10.23;5.28;;;1.20;99.90;;;;;;9938830;28;20030;-70
2023/02/07 23:50:24;;;;;;;9.68;4.43;;;1.10;99.90;;;;;;9938986;28;20030;-69
2023/02/07 23:55:15;;;;;;;7.40;3.75;;;1.10;99.90;;;;;;9949312;28;20042;-69
